createdAt,value
2019-01-03T00:00:00.167Z,16.9
2019-01-03T00:00:49.916Z,16.9
2019-01-03T00:01:40.786Z,16.9
2019-01-03T00:02:29.216Z,16.9
2019-01-03T00:03:20.118Z,16.9
2019-01-03T00:04:09.656Z,16.9
2019-01-03T00:04:59.978Z,16.9
2019-01-03T00:05:50.768Z,16.8
2019-01-03T00:06:40.900Z,16.8
2019-01-03T00:07:30.411Z,16.8
2019-01-03T00:08:20.707Z,16.8
2019-01-03T00:09:09.420Z,16.7
2019-01-03T00:10:00.651Z,16.7
2019-01-03T00:10:50.873Z,16.6
2019-01-03T00:11:40.430Z,16.6
2019-01-03T00:12:31.311Z,16.5
2019-01-03T00:13:20.559Z,16.5
2019-01-03T00:14:11.317Z,16.5
2019-01-03T00:15:00.700Z,16.5
2019-01-03T00:33:16.821Z,16.9
2019-01-03T00:34:06.406Z,16.9
2019-01-03T00:34:57.749Z,16.9
2019-01-03T00:35:46.109Z,17.1
2019-01-03T00:37:27.151Z,17.1
2019-01-03T00:38:17.753Z,17.1
2019-01-03T00:40:46.905Z,16.9
2019-01-03T00:41:37.391Z,16.9
2019-01-03T00:42:26.423Z,16.8
2019-01-03T00:43:17.853Z,16.8
2019-01-03T00:44:06.863Z,16.8
2019-01-03T00:44:56.391Z,16.8
2019-01-03T00:45:47.523Z,16.8
2019-01-03T00:46:37.805Z,16.8
2019-01-03T00:47:26.790Z,16.8
2019-01-03T00:48:18.535Z,16.7
2019-01-03T00:49:07.766Z,16.7
2019-01-03T00:49:56.751Z,16.7
2019-01-03T00:50:47.030Z,16.8
2019-01-03T00:51:37.062Z,16.8
2019-01-03T00:52:28.137Z,16.8
2019-01-03T00:53:17.838Z,16.9
2019-01-03T00:54:07.295Z,16.9
2019-01-03T00:59:58.143Z,17.1
2019-01-03T01:00:48.075Z,17.1
2019-01-03T01:01:38.359Z,17.2
2019-01-03T01:02:28.902Z,17.2
2019-01-03T01:03:17.434Z,17.2
2019-01-03T01:04:07.719Z,17.1
2019-01-03T01:04:57.706Z,16.9
2019-01-03T01:05:48.399Z,16.9
2019-01-03T01:08:18.784Z,17.1
2019-01-03T01:09:08.872Z,17.1
2019-01-03T01:09:58.659Z,17.1
2019-01-03T01:10:48.666Z,17.1
2019-01-03T01:12:29.811Z,16.9
2019-01-03T01:13:19.626Z,16.9
2019-01-03T01:14:07.606Z,16.9
2019-01-03T01:14:58.440Z,16.9
2019-01-03T01:15:49.026Z,16.9
2019-01-03T01:16:40.306Z,16.9
2019-01-03T01:17:29.345Z,16.9
2019-01-03T01:18:18.048Z,16.9
2019-01-03T01:19:09.503Z,16.9
2019-01-03T01:19:59.741Z,16.9
2019-01-03T01:20:49.571Z,16.9
2019-01-03T01:21:39.113Z,16.9
2019-01-03T01:22:30.223Z,16.9
2019-01-03T01:23:20.563Z,16.9
2019-01-03T01:24:09.260Z,16.9
2019-01-03T01:28:19.808Z,16.9
2019-01-03T01:29:10.672Z,16.9
2019-01-03T01:31:40.550Z,17.1
2019-01-03T01:32:30.401Z,17.1
2019-01-03T01:33:20.460Z,17.1
2019-01-03T01:34:11.668Z,17.2
2019-01-03T01:35:01.143Z,17.2
2019-01-03T01:35:51.470Z,17.2
2019-01-03T01:36:41.483Z,17.1
2019-01-03T01:39:11.114Z,17.1
2019-01-03T01:40:01.283Z,17.1
2019-01-03T01:40:50.657Z,17.1
2019-01-03T01:41:41.327Z,17.1
2019-01-03T01:42:31.609Z,17.1
2019-01-03T01:44:11.551Z,16.9
2019-01-03T01:45:01.662Z,16.9
2019-01-03T01:45:51.559Z,16.8
2019-01-03T01:46:41.427Z,16.8
2019-01-03T01:47:31.703Z,16.8
2019-01-03T01:48:21.202Z,16.8
2019-01-03T01:49:11.527Z,16.8
2019-01-03T01:50:01.916Z,16.8
2019-01-03T01:50:50.794Z,16.8
2019-01-03T01:51:41.074Z,16.8
2019-01-03T01:52:32.054Z,16.8
2019-01-03T01:53:21.594Z,16.9
2019-01-03T01:54:11.334Z,16.9
2019-01-03T01:55:02.337Z,16.9
2019-01-03T01:55:51.924Z,16.9
2019-01-03T01:56:42.014Z,16.9
2019-01-03T01:57:32.094Z,16.9
2019-01-03T01:58:21.936Z,16.9
2019-01-03T01:59:11.443Z,16.9
2019-01-03T02:00:01.811Z,16.8
2019-01-03T02:00:52.796Z,16.8
2019-01-03T02:01:42.918Z,16.7
2019-01-03T02:02:32.983Z,16.6
2019-01-03T02:03:23.565Z,16.5
2019-01-03T02:04:12.818Z,16.4
2019-01-03T02:05:03.446Z,16.4
2019-01-03T02:05:52.383Z,16.4
2019-01-03T02:06:41.326Z,16.4
2019-01-03T02:07:33.038Z,16.4
2019-01-03T02:08:22.385Z,16.4
2019-01-03T02:09:11.629Z,16.4
2019-01-03T02:10:02.587Z,16.4
2019-01-03T02:10:52.907Z,16.5
2019-01-03T02:11:42.870Z,16.6
2019-01-03T02:12:33.411Z,16.7
2019-01-03T02:13:22.947Z,16.7
2019-01-03T02:14:13.250Z,16.8
2019-01-03T02:15:02.487Z,16.8
2019-01-03T02:15:52.635Z,16.8
2019-01-03T02:16:42.655Z,16.8
2019-01-03T02:17:33.194Z,16.9
2019-01-03T02:18:23.105Z,16.9
2019-01-03T02:19:13.652Z,16.9
2019-01-03T02:20:04.589Z,17.1
2019-01-03T02:20:54.077Z,17.1
2019-01-03T02:21:43.102Z,17.1
2019-01-03T02:22:33.350Z,17.1
2019-01-03T02:23:23.175Z,16.9
2019-01-03T02:24:14.794Z,16.9
2019-01-03T02:25:04.284Z,16.9
2019-01-03T02:25:54.074Z,16.9
2019-01-03T02:26:43.337Z,16.9
2019-01-03T02:27:33.659Z,16.9
2019-01-03T02:28:24.539Z,16.9
2019-01-03T02:29:14.264Z,16.9
2019-01-03T02:30:04.936Z,16.9
2019-01-03T02:30:55.488Z,16.9
2019-01-03T02:31:44.734Z,16.9
2019-01-03T02:32:34.638Z,16.9
2019-01-03T02:33:25.106Z,16.8
2019-01-03T02:34:14.314Z,16.8
2019-01-03T02:35:05.194Z,16.8
2019-01-03T02:35:54.688Z,16.8
2019-01-03T02:36:45.558Z,16.8
2019-01-03T02:37:35.018Z,16.8
2019-01-03T02:38:24.558Z,16.8
2019-01-03T02:39:14.941Z,16.8
2019-01-03T02:40:06.016Z,16.7
2019-01-03T02:40:55.088Z,16.8
2019-01-03T02:41:43.834Z,16.8
2019-01-03T02:42:35.130Z,16.9
2019-01-03T02:43:25.813Z,16.9
2019-01-03T02:44:16.400Z,16.9
2019-01-03T02:45:06.025Z,16.9
2019-01-03T02:45:56.251Z,16.9
2019-01-03T02:47:36.618Z,17.1
2019-01-03T02:48:26.123Z,17.1
2019-01-03T02:49:16.475Z,17.1
2019-01-03T02:50:06.205Z,17.2
2019-01-03T02:50:55.753Z,17.2
2019-01-03T02:51:46.030Z,17.3
2019-01-03T02:52:37.208Z,17.3
2019-01-03T02:53:26.195Z,17.3
2019-01-03T02:54:16.838Z,17.4
2019-01-03T02:55:06.815Z,17.2
2019-01-03T02:55:56.392Z,17.1
2019-01-03T02:56:46.203Z,17.1
2019-01-03T02:57:36.254Z,17.1
2019-01-03T02:58:27.193Z,17.1
2019-01-03T02:59:15.812Z,17.1
2019-01-03T03:00:07.788Z,17.1
2019-01-03T03:00:56.497Z,17.1
2019-01-03T03:01:47.392Z,17.1
2019-01-03T03:03:28.354Z,16.9
2019-01-03T03:04:16.451Z,16.9
2019-01-03T03:05:09.377Z,16.9
2019-01-03T03:05:57.831Z,16.9
2019-01-03T03:06:47.113Z,16.9
2019-01-03T03:07:37.107Z,16.8
2019-01-03T03:08:28.004Z,16.8
2019-01-03T03:09:17.282Z,16.8
2019-01-03T03:10:07.966Z,16.8
2019-01-03T03:10:58.171Z,16.8
2019-01-03T03:11:47.484Z,16.7
2019-01-03T03:12:37.509Z,16.7
2019-01-03T03:13:27.659Z,16.8
2019-01-03T03:14:16.810Z,16.8
2019-01-03T03:15:08.291Z,16.8
2019-01-03T03:15:59.373Z,16.8
2019-01-03T03:16:48.630Z,16.9
2019-01-03T03:17:36.698Z,16.9
2019-01-03T03:18:27.940Z,16.9
2019-01-03T03:19:18.003Z,16.9
2019-01-03T03:20:08.815Z,16.9
2019-01-03T03:22:38.211Z,17.1
2019-01-03T03:23:29.060Z,17.1
2019-01-03T03:24:18.849Z,17.1
2019-01-03T03:25:09.521Z,17.1
2019-01-03T03:25:58.358Z,17.1
2019-01-03T03:26:48.420Z,17.2
2019-01-03T03:27:39.319Z,17.3
2019-01-03T03:28:28.373Z,17.2
2019-01-03T03:29:19.023Z,17.2
2019-01-03T03:30:08.939Z,17.2
2019-01-03T03:30:58.956Z,17.1
2019-01-03T03:31:49.935Z,17.1
2019-01-03T03:33:28.764Z,16.9
2019-01-03T03:34:18.958Z,16.9
2019-01-03T03:35:08.513Z,16.9
2019-01-03T03:35:59.356Z,16.9
2019-01-03T03:36:50.225Z,16.9
2019-01-03T03:37:40.343Z,16.9
2019-01-03T03:38:29.295Z,16.8
2019-01-03T03:39:20.679Z,16.8
2019-01-03T03:40:08.574Z,16.8
2019-01-03T03:41:00.568Z,16.8
2019-01-03T03:41:50.581Z,16.8
2019-01-03T03:42:40.722Z,16.9
2019-01-03T03:43:29.363Z,16.9
2019-01-03T03:44:19.139Z,16.9
2019-01-03T03:45:10.287Z,16.9
2019-01-03T03:46:00.867Z,16.9
2019-01-03T03:47:40.215Z,17.1
2019-01-03T03:48:30.538Z,17.1
2019-01-03T03:49:19.069Z,17.1
2019-01-03T03:50:11.505Z,17.2
2019-01-03T03:50:59.395Z,17.1
2019-01-03T03:51:50.274Z,17.1
2019-01-03T03:52:40.037Z,16.9
2019-01-03T03:53:30.289Z,16.9
2019-01-03T03:56:51.053Z,17.1
2019-01-03T03:59:20.403Z,16.9
2019-01-03T04:00:10.058Z,16.9
2019-01-03T04:01:00.937Z,16.9
2019-01-03T04:01:50.649Z,16.8
2019-01-03T04:02:40.968Z,16.8
2019-01-03T04:03:30.202Z,16.8
2019-01-03T04:04:21.119Z,16.8
2019-01-03T04:05:11.698Z,16.8
2019-01-03T04:06:00.106Z,16.8
2019-01-03T04:06:51.898Z,16.8
2019-01-03T04:07:40.621Z,16.8
2019-01-03T04:08:31.930Z,16.8
2019-01-03T04:09:21.733Z,16.8
2019-01-03T04:10:11.762Z,16.8
2019-01-03T04:11:02.020Z,16.8
2019-01-03T04:11:51.784Z,16.9
2019-01-03T04:12:40.823Z,16.9
2019-01-03T04:13:32.750Z,16.9
2019-01-03T04:14:22.095Z,16.9
2019-01-03T04:18:32.145Z,17.1
2019-01-03T04:19:22.174Z,17.1
2019-01-03T04:20:11.917Z,17.1
2019-01-03T04:21:03.384Z,17.2
2019-01-03T04:21:53.346Z,17.3
2019-01-03T04:22:42.471Z,17.3
2019-01-03T04:23:33.439Z,17.2
2019-01-03T04:24:22.395Z,17.1
2019-01-03T04:25:28.178Z,17.1
2019-01-03T04:26:02.809Z,17.2
2019-01-03T04:26:53.487Z,17.3
2019-01-03T04:27:42.918Z,17.3
2019-01-03T04:28:33.540Z,17.2
2019-01-03T04:29:23.818Z,17.2
2019-01-03T04:30:12.602Z,17.2
2019-01-03T04:31:03.788Z,17.1
2019-01-03T04:31:54.637Z,17.1
2019-01-03T04:32:43.240Z,17.1
2019-01-03T04:34:23.154Z,16.9
2019-01-03T04:35:14.351Z,16.9
2019-01-03T04:36:03.791Z,16.9
2019-01-03T04:36:53.894Z,16.9
2019-01-03T04:37:44.011Z,16.9
2019-01-03T04:38:33.401Z,16.9
2019-01-03T04:39:23.214Z,16.9
2019-01-03T04:40:13.178Z,16.9
2019-01-03T04:41:03.816Z,16.8
2019-01-03T04:41:53.564Z,16.9
2019-01-03T04:42:43.181Z,16.9
2019-01-03T04:43:33.885Z,16.9
2019-01-03T04:44:23.353Z,16.9
2019-01-03T04:45:13.894Z,16.6
2019-01-03T05:02:32.893Z,17.1
2019-01-03T05:03:22.693Z,17.1
2019-01-03T05:04:12.841Z,17.1
2019-01-03T05:05:02.276Z,17.1
2019-01-03T05:05:52.575Z,17.1
2019-01-03T05:06:42.633Z,16.9
2019-01-03T05:07:33.743Z,16.9
2019-01-03T05:08:23.348Z,16.9
2019-01-03T05:09:13.053Z,16.9
2019-01-03T05:11:43.836Z,16.9
2019-01-03T05:12:34.140Z,16.9
2019-01-03T05:13:23.856Z,16.9
2019-01-03T05:14:13.175Z,16.9
2019-01-03T05:15:02.703Z,16.9
2019-01-03T05:15:53.795Z,16.9
2019-01-03T05:17:33.048Z,16.9
2019-01-03T05:18:22.666Z,16.9
2019-01-03T05:19:12.994Z,16.8
2019-01-03T05:20:03.607Z,16.8
2019-01-03T05:20:52.605Z,16.6
2019-01-03T05:21:43.432Z,16.6
2019-01-03T05:22:34.024Z,16.6
2019-01-03T05:23:23.601Z,16.5
2019-01-03T05:24:13.642Z,16.5
2019-01-03T05:25:03.458Z,16.4
2019-01-03T05:25:53.107Z,16.4
2019-01-03T05:26:43.504Z,16.4
2019-01-03T05:27:34.579Z,16.4
2019-01-03T05:28:23.832Z,16.5
2019-01-03T05:29:14.937Z,16.5
2019-01-03T05:30:05.469Z,16.6
2019-01-03T05:30:54.025Z,16.6
2019-01-03T05:31:43.277Z,16.6
2019-01-03T05:32:35.534Z,16.7
2019-01-03T05:33:24.206Z,16.8
2019-01-03T05:34:14.841Z,16.8
2019-01-03T05:35:04.585Z,16.8
2019-01-03T05:35:55.216Z,16.8
2019-01-03T05:36:45.476Z,16.9
2019-01-03T05:37:35.248Z,17.1
2019-01-03T05:38:26.179Z,17.2
2019-01-03T05:39:15.343Z,17.2
2019-01-03T05:40:04.820Z,17.2
2019-01-03T05:40:54.751Z,17.2
2019-01-03T05:41:44.734Z,17.2
2019-01-03T05:42:35.572Z,17.3
2019-01-03T05:43:25.974Z,17.2
2019-01-03T05:44:15.987Z,17.2
2019-01-03T05:45:05.292Z,17.1
2019-01-03T05:46:45.363Z,16.9
2019-01-03T05:47:35.234Z,16.9
2019-01-03T05:48:25.511Z,16.9
2019-01-03T05:50:05.948Z,17.1
2019-01-03T05:50:55.345Z,17.1
2019-01-03T05:51:45.720Z,17.1
2019-01-03T05:52:34.958Z,17.1
2019-01-03T05:53:26.733Z,17.1
2019-01-03T05:54:14.990Z,17.1
2019-01-03T05:56:45.849Z,16.9
2019-01-03T05:57:36.050Z,16.9
2019-01-03T06:00:06.685Z,16.9
2019-01-03T06:00:56.155Z,16.9
2019-01-03T06:01:46.385Z,16.9
2019-01-03T06:08:27.682Z,17.1
2019-01-03T06:09:16.287Z,17.1
2019-01-03T06:10:07.779Z,17.2
2019-01-03T06:10:57.037Z,17.3
2019-01-03T06:11:47.063Z,17.3
2019-01-03T06:12:37.140Z,17.3
2019-01-03T06:13:27.735Z,17.4
2019-01-03T06:14:17.750Z,17.4
2019-01-03T06:15:09.200Z,17.4
2019-01-03T06:15:56.982Z,17.5
2019-01-03T06:16:47.666Z,17.4
2019-01-03T06:17:37.931Z,17.4
2019-01-03T06:18:26.629Z,17.3
2019-01-03T06:19:16.652Z,17.2
2019-01-03T06:20:08.720Z,17.1
2019-01-03T06:20:57.688Z,17.1
2019-01-03T06:21:47.698Z,17.1
2019-01-03T06:22:37.723Z,17.1
2019-01-03T06:23:27.768Z,17.1
2019-01-03T06:24:18.844Z,17.1
2019-01-03T06:25:09.351Z,17.1
2019-01-03T06:25:58.833Z,17.1
2019-01-03T06:28:27.897Z,16.9
2019-01-03T06:29:18.415Z,16.9
2019-01-03T06:30:09.338Z,16.9
2019-01-03T06:30:58.035Z,16.9
2019-01-03T06:31:48.904Z,16.9
2019-01-03T06:32:39.225Z,16.9
2019-01-03T06:34:18.573Z,16.9
2019-01-03T06:35:09.651Z,16.9
2019-01-03T06:35:59.808Z,16.9
2019-01-03T06:36:47.695Z,16.9
2019-01-03T06:37:37.737Z,16.9
2019-01-03T06:38:28.622Z,16.9
2019-01-03T06:39:17.561Z,16.9
2019-01-03T06:40:08.515Z,16.9
2019-01-03T06:40:56.970Z,16.9
2019-01-03T06:42:38.802Z,16.9
2019-01-03T06:45:10.114Z,17.1
2019-01-03T06:45:59.815Z,17.1
2019-01-03T06:46:49.665Z,17.1
2019-01-03T06:47:39.667Z,17.1
2019-01-03T06:48:30.789Z,17.1
2019-01-03T06:49:19.289Z,17.1
2019-01-03T06:50:59.914Z,16.9
2019-01-03T06:51:50.784Z,16.9
2019-01-03T06:52:39.751Z,16.8
2019-01-03T06:53:30.151Z,16.8
2019-01-03T06:54:19.917Z,16.7
2019-01-03T06:55:09.929Z,16.6
2019-01-03T06:55:59.779Z,16.5
2019-01-03T06:56:50.867Z,16.6
2019-01-03T06:57:40.333Z,16.6
2019-01-03T06:58:30.146Z,16.5
2019-01-03T06:59:20.314Z,16.5
2019-01-03T07:00:10.428Z,16.5
2019-01-03T07:00:59.366Z,16.5
2019-01-03T07:01:49.736Z,16.6
2019-01-03T07:02:41.206Z,16.7
2019-01-03T07:03:30.451Z,16.7
2019-01-03T07:04:20.049Z,16.8
2019-01-03T07:05:09.782Z,16.8
2019-01-03T07:06:00.112Z,16.9
2019-01-03T07:07:40.443Z,17.1
2019-01-03T07:08:30.848Z,17.1
2019-01-03T07:09:21.791Z,17.1
2019-01-03T07:10:10.661Z,17.1
2019-01-03T07:11:00.738Z,17.2
2019-01-03T07:11:50.721Z,17.2
2019-01-03T07:12:41.085Z,17.3
2019-01-03T07:13:30.585Z,17.2
2019-01-03T07:14:22.791Z,17.1
2019-01-03T07:16:51.858Z,16.9
2019-01-03T07:17:42.357Z,16.9
2019-01-03T07:18:31.097Z,16.9
2019-01-03T07:20:11.235Z,16.9
2019-01-03T07:21:00.748Z,16.9
2019-01-03T07:21:51.282Z,16.9
2019-01-03T07:22:41.790Z,16.9
2019-01-03T07:23:31.905Z,16.8
2019-01-03T07:24:22.197Z,16.9
2019-01-03T07:25:12.005Z,16.8
2019-01-03T07:26:02.465Z,16.8
2019-01-03T07:26:51.542Z,16.8
2019-01-03T07:27:41.875Z,16.7
2019-01-03T07:28:32.332Z,16.7
2019-01-03T07:29:21.460Z,16.7
2019-01-03T07:30:12.835Z,16.7
2019-01-03T07:31:02.369Z,16.7
2019-01-03T07:31:51.815Z,16.8
2019-01-03T07:32:42.460Z,16.8
2019-01-03T07:33:33.354Z,16.8
2019-01-03T07:34:22.037Z,16.8
2019-01-03T07:35:12.224Z,16.8
2019-01-03T07:36:02.444Z,16.9
2019-01-03T07:37:42.801Z,17.1
2019-01-03T07:38:32.292Z,17.1
2019-01-03T07:39:23.181Z,17.2
2019-01-03T07:40:12.801Z,17.2
2019-01-03T07:41:03.049Z,17.2
2019-01-03T07:41:53.576Z,17.2
2019-01-03T07:42:42.380Z,17.3
2019-01-03T07:43:33.198Z,17.4
2019-01-03T07:44:23.531Z,17.4
2019-01-03T07:45:13.871Z,17.3
2019-01-03T07:46:03.141Z,17.1
2019-01-03T07:46:53.731Z,17.1
2019-01-03T07:51:54.898Z,16.9
2019-01-03T07:52:43.386Z,16.9
2019-01-03T07:53:34.981Z,16.9
2019-01-03T07:54:23.971Z,16.9
2019-01-03T07:55:14.243Z,16.9
2019-01-03T07:56:04.030Z,16.8
2019-01-03T07:56:54.361Z,16.8
2019-01-03T07:57:43.399Z,16.8
2019-01-03T07:58:33.982Z,16.7
2019-01-03T07:59:24.818Z,16.6
2019-01-03T08:00:14.633Z,16.6
2019-01-03T08:01:03.838Z,16.7
2019-01-03T08:01:54.230Z,16.8
2019-01-03T08:02:44.817Z,16.7
2019-01-03T08:03:33.585Z,16.8
2019-01-03T08:04:24.692Z,16.8
2019-01-03T08:05:14.292Z,16.8
2019-01-03T08:06:04.844Z,16.9
2019-01-03T08:06:54.271Z,16.9
2019-01-03T08:08:35.025Z,17.1
2019-01-03T08:09:24.245Z,17.1
2019-01-03T08:10:14.237Z,17.2
2019-01-03T08:11:05.149Z,17.3
2019-01-03T08:11:54.359Z,17.3
2019-01-03T08:12:45.553Z,17.3
2019-01-03T08:13:35.007Z,17.3
2019-01-03T08:14:24.564Z,17.4
2019-01-03T08:15:15.354Z,17.4
2019-01-03T08:16:05.456Z,17.4
2019-01-03T08:16:54.974Z,17.4
2019-01-03T08:17:45.406Z,17.4
2019-01-03T08:18:35.399Z,17.3
2019-01-03T08:19:24.919Z,17.2
2019-01-03T08:20:15.516Z,17.1
2019-01-03T08:21:54.486Z,16.9
2019-01-03T08:22:46.229Z,16.9
2019-01-03T08:23:35.734Z,16.8
2019-01-03T08:24:26.303Z,16.7
2019-01-03T08:25:16.143Z,16.7
2019-01-03T08:26:05.622Z,16.6
2019-01-03T08:26:54.611Z,16.7
2019-01-03T08:27:47.594Z,16.7
2019-01-03T08:28:36.646Z,16.7
2019-01-03T08:29:25.323Z,16.7
2019-01-03T08:30:15.910Z,16.7
2019-01-03T08:31:06.550Z,16.7
2019-01-03T08:31:55.831Z,16.8
2019-01-03T08:32:47.696Z,16.8
2019-01-03T08:33:36.918Z,16.8
2019-01-03T08:34:25.943Z,16.8
2019-01-03T08:35:17.059Z,16.9
2019-01-03T08:36:05.988Z,16.9
2019-01-03T08:37:46.357Z,17.1
2019-01-03T08:38:36.950Z,17.1
2019-01-03T08:39:26.508Z,17.1
2019-01-03T08:40:16.854Z,17.1
2019-01-03T08:41:07.668Z,17.2
2019-01-03T08:41:56.890Z,17.3
2019-01-03T08:42:47.235Z,17.2
2019-01-03T08:43:37.842Z,17.1
2019-01-03T08:44:27.055Z,16.9
2019-01-03T08:45:17.750Z,16.9
2019-01-03T08:46:07.185Z,16.9
2019-01-03T08:46:57.767Z,16.9
2019-01-03T08:47:48.367Z,16.9
2019-01-03T08:48:37.682Z,16.9
2019-01-03T08:50:16.980Z,16.9
2019-01-03T08:51:08.864Z,16.9
2019-01-03T08:51:57.892Z,16.9
2019-01-03T08:52:48.142Z,16.9
2019-01-03T08:53:38.762Z,16.9
2019-01-03T08:54:27.863Z,16.9
2019-01-03T08:55:17.027Z,16.9
2019-01-03T08:56:08.402Z,16.9
2019-01-03T08:56:56.594Z,16.8
2019-01-03T08:57:47.986Z,16.9
2019-01-03T08:58:38.865Z,16.8
2019-01-03T08:59:28.709Z,16.8
2019-01-03T09:00:18.181Z,16.8
2019-01-03T09:01:08.594Z,16.9
2019-01-03T09:16:57.919Z,16.9
2019-01-03T09:17:47.701Z,16.9
2019-01-03T09:18:38.073Z,16.9
2019-01-03T09:19:28.653Z,16.9
2019-01-03T09:20:19.270Z,16.9
2019-01-03T09:21:58.565Z,16.9
2019-01-03T09:22:49.577Z,16.9
2019-01-03T09:23:38.897Z,16.9
2019-01-03T09:24:28.955Z,16.8
2019-01-03T09:25:19.273Z,16.9
2019-01-03T09:26:09.322Z,16.8
2019-01-03T09:26:59.487Z,16.8
2019-01-03T09:27:48.590Z,16.8
2019-01-03T09:28:39.517Z,16.8
2019-01-03T09:29:29.837Z,16.8
2019-01-03T09:30:18.782Z,16.8
2019-01-03T09:31:09.139Z,16.9
2019-01-03T09:31:59.586Z,16.8
2019-01-03T09:32:49.776Z,16.8
2019-01-03T09:33:39.303Z,16.8
2019-01-03T09:34:29.404Z,16.8
2019-01-03T09:35:19.215Z,16.9
2019-01-03T09:36:09.087Z,16.9
2019-01-03T09:37:00.416Z,16.9
2019-01-03T09:38:40.605Z,17.1
2019-01-03T09:39:30.015Z,17.2
2019-01-03T09:40:20.055Z,17.3
2019-01-03T09:41:09.570Z,17.3
2019-01-03T09:41:59.649Z,17.3
2019-01-03T09:42:50.582Z,17.4
2019-01-03T09:43:39.775Z,17.4
2019-01-03T09:44:30.075Z,17.4
2019-01-03T09:45:20.455Z,17.3
2019-01-03T09:46:10.266Z,17.1
2019-01-03T09:48:40.624Z,16.9
2019-01-03T09:50:19.952Z,17.1
2019-01-03T09:51:10.790Z,17.1
2019-01-03T09:52:00.343Z,17.1
2019-01-03T09:54:30.777Z,16.9
2019-01-03T09:59:31.109Z,16.9
2019-01-03T10:01:11.474Z,16.9
2019-01-03T10:03:41.327Z,17.1
2019-01-03T10:04:29.869Z,17.1
2019-01-03T10:05:21.236Z,17.1
2019-01-03T10:07:02.197Z,16.9
2019-01-03T10:07:51.968Z,16.9
2019-01-03T10:08:42.291Z,16.8
2019-01-03T10:09:31.258Z,16.8
2019-01-03T10:10:20.998Z,16.6
2019-01-03T10:11:11.618Z,16.6
2019-01-03T10:12:02.268Z,16.6
2019-01-03T10:12:52.278Z,16.6
2019-01-03T10:13:43.218Z,16.6
2019-01-03T10:14:32.094Z,16.6
2019-01-03T10:15:21.663Z,16.6
2019-01-03T10:16:11.758Z,16.6
2019-01-03T10:17:01.446Z,16.6
2019-01-03T10:17:52.380Z,16.6
2019-01-03T10:18:41.888Z,16.6
2019-01-03T10:19:33.053Z,16.8
2019-01-03T10:20:22.515Z,16.8
2019-01-03T10:21:12.298Z,16.9
2019-01-03T10:22:02.702Z,16.9
2019-01-03T10:22:52.947Z,16.9
2019-01-03T10:24:32.817Z,17.1
2019-01-03T10:25:22.882Z,16.9
2019-01-03T10:26:13.767Z,16.9
2019-01-03T10:27:03.314Z,16.8
2019-01-03T10:27:53.813Z,16.8
2019-01-03T10:28:43.947Z,16.8
2019-01-03T10:29:32.672Z,16.8
2019-01-03T10:30:23.742Z,16.8
2019-01-03T10:31:15.272Z,16.8
2019-01-03T10:32:02.720Z,16.8
2019-01-03T10:32:53.874Z,16.8
2019-01-03T10:33:43.097Z,16.8
2019-01-03T10:34:34.292Z,16.8
2019-01-03T10:35:23.568Z,16.8
2019-01-03T10:36:14.159Z,16.8
2019-01-03T10:37:03.892Z,16.8
2019-01-03T10:37:53.124Z,16.8
2019-01-03T10:38:44.614Z,16.8
2019-01-03T10:39:34.319Z,16.8
2019-01-03T10:40:24.667Z,16.8
2019-01-03T10:41:14.189Z,16.8
2019-01-03T10:42:03.709Z,16.8
2019-01-03T10:42:53.803Z,16.9
2019-01-03T10:43:45.166Z,16.9
2019-01-03T10:44:35.047Z,16.9
2019-01-03T10:48:44.921Z,17.1
2019-01-03T10:49:34.778Z,17.1
2019-01-03T10:50:25.148Z,17.1
2019-01-03T10:51:15.131Z,17.1
2019-01-03T10:52:03.833Z,17.2
2019-01-03T10:52:54.212Z,17.3
2019-01-03T10:53:44.350Z,17.3
2019-01-03T10:54:36.036Z,17.1
2019-01-03T10:57:05.578Z,16.9
2019-01-03T10:57:55.437Z,16.9
2019-01-03T10:59:36.053Z,17.1
2019-01-03T11:00:25.757Z,17.1
2019-01-03T11:01:15.260Z,17.1
2019-01-03T11:02:05.333Z,17.1
2019-01-03T11:03:45.737Z,16.9
2019-01-03T11:05:25.230Z,16.9
2019-01-03T11:06:15.378Z,16.9
2019-01-03T11:07:06.510Z,16.9
2019-01-03T11:07:56.057Z,16.9
2019-01-03T11:08:45.737Z,16.9
2019-01-03T11:09:36.100Z,16.9
2019-01-03T11:14:35.694Z,17.1
2019-01-03T11:15:25.772Z,17.2
2019-01-03T11:16:16.365Z,17.1
2019-01-03T11:17:06.620Z,17.2
2019-01-03T11:17:56.382Z,17.3
2019-01-03T11:18:46.457Z,17.3
2019-01-03T11:19:36.304Z,17.4
2019-01-03T11:20:26.394Z,17.4
2019-01-03T11:21:16.366Z,17.5
2019-01-03T11:22:05.969Z,17.4
2019-01-03T11:22:56.764Z,17.3
2019-01-03T11:23:46.781Z,17.1
2019-01-03T11:24:37.434Z,17.1
2019-01-03T11:25:27.473Z,17.1
2019-01-03T11:27:07.014Z,17.1
2019-01-03T11:27:57.628Z,17.2
2019-01-03T11:28:46.839Z,17.3
2019-01-03T11:29:36.931Z,17.3
2019-01-03T11:30:27.541Z,17.2
2019-01-03T11:31:17.713Z,17.2
2019-01-03T11:32:06.524Z,17.1
2019-01-03T11:32:57.421Z,17.1
2019-01-03T11:33:47.241Z,17.1
2019-01-03T11:34:37.818Z,17.1
2019-01-03T11:35:28.757Z,17.1
2019-01-03T11:37:07.731Z,17.1
2019-01-03T11:37:56.994Z,17.1
2019-01-03T11:38:48.165Z,17.1
2019-01-03T11:39:38.236Z,17.1
2019-01-03T11:40:29.070Z,17.1
2019-01-03T11:41:18.328Z,17.1
2019-01-03T11:42:08.335Z,17.1
2019-01-03T11:42:58.442Z,17.2
2019-01-03T11:43:48.675Z,17.2
2019-01-03T11:44:38.537Z,17.3
2019-01-03T11:45:27.758Z,17.3
2019-01-03T11:46:18.627Z,17.3
2019-01-03T11:47:08.117Z,17.3
2019-01-03T11:47:57.925Z,17.3
2019-01-03T11:48:48.804Z,17.3
2019-01-03T11:49:37.845Z,17.2
2019-01-03T11:50:29.177Z,17.1
2019-01-03T11:51:19.445Z,17.1
2019-01-03T11:56:19.142Z,17.1
2019-01-03T11:57:08.332Z,17.1
2019-01-03T11:57:58.902Z,17.2
2019-01-03T11:58:49.814Z,17.3
2019-01-03T11:59:39.048Z,17.2
2019-01-03T12:00:29.590Z,17.3
2019-01-03T12:01:19.893Z,17.3
2019-01-03T12:02:09.151Z,17.3
2019-01-03T12:02:59.489Z,17.3
2019-01-03T12:03:50.101Z,17.3
2019-01-03T12:04:39.616Z,17.3
2019-01-03T12:05:29.396Z,17.1
2019-01-03T12:06:19.531Z,17.1
2019-01-03T12:07:59.873Z,16.9
2019-01-03T12:08:49.613Z,16.9
2019-01-03T12:09:40.808Z,16.9
2019-01-03T12:10:30.001Z,17.1
2019-01-03T12:11:20.591Z,17.1
2019-01-03T12:12:10.703Z,17.1
2019-01-03T12:12:59.936Z,17.1
2019-01-03T12:13:49.816Z,17.1
2019-01-03T12:14:40.083Z,17.1
2019-01-03T12:22:11.163Z,17.1
2019-01-03T12:23:50.727Z,17.1
2019-01-03T12:24:40.245Z,17.1
2019-01-03T12:25:29.879Z,17.1
2019-01-03T12:26:20.872Z,17.1
2019-01-03T12:27:11.264Z,17.1
2019-01-03T12:28:00.505Z,17.2
2019-01-03T12:28:50.762Z,17.2
2019-01-03T12:29:39.789Z,17.3
2019-01-03T12:30:31.225Z,17.3
2019-01-03T12:31:21.179Z,17.4
2019-01-03T12:32:11.537Z,17.4
2019-01-03T12:33:01.398Z,17.5
2019-01-03T12:33:51.365Z,17.6
2019-01-03T12:34:40.062Z,17.4
2019-01-03T12:35:30.992Z,17.3
2019-01-03T12:36:20.722Z,17.2
2019-01-03T12:37:11.870Z,17.1
2019-01-03T12:38:01.407Z,17.1
2019-01-03T12:40:31.554Z,17.1
2019-01-03T12:41:21.285Z,17.1
2019-01-03T12:42:12.219Z,17.1
2019-01-03T12:43:02.339Z,17.1
2019-01-03T12:43:51.626Z,17.1
2019-01-03T12:44:42.084Z,17.1
2019-01-03T12:45:33.648Z,17.1
2019-01-03T12:46:22.010Z,17.1
2019-01-03T12:48:55.459Z,16.9
2019-01-03T12:49:42.178Z,16.9
2019-01-03T12:50:34.446Z,16.9
2019-01-03T12:53:52.633Z,17.1
2019-01-03T12:54:41.974Z,17.1
2019-01-03T12:55:33.108Z,17.2
2019-01-03T12:56:21.878Z,17.3
2019-01-03T12:57:12.968Z,17.3
2019-01-03T12:58:04.364Z,17.3
2019-01-03T12:58:52.473Z,17.4
2019-01-03T12:59:43.085Z,17.4
2019-01-03T13:00:33.710Z,17.4
2019-01-03T13:01:23.166Z,17.4
2019-01-03T13:02:13.515Z,17.4
2019-01-03T13:03:03.563Z,17.4
2019-01-03T13:03:52.823Z,17.4
2019-01-03T13:04:43.155Z,17.4
2019-01-03T13:05:34.025Z,17.2
2019-01-03T13:06:32.650Z,17.1
2019-01-03T13:07:13.342Z,17.1
2019-01-03T13:09:43.247Z,17.1
2019-01-03T13:10:34.977Z,17.1
2019-01-03T13:11:23.075Z,17.2
2019-01-03T13:12:13.662Z,17.3
2019-01-03T13:13:04.057Z,17.3
2019-01-03T13:13:55.162Z,17.3
2019-01-03T13:14:45.530Z,17.2
2019-01-03T13:15:34.477Z,17.2
2019-01-03T13:16:24.824Z,17.1
2019-01-03T13:17:15.144Z,17.1
2019-01-03T13:18:05.157Z,17.1
2019-01-03T13:18:55.585Z,17.1
2019-01-03T13:19:45.317Z,17.2
2019-01-03T13:20:35.059Z,17.2
2019-01-03T13:21:24.671Z,17.2
2019-01-03T13:22:14.651Z,17.2
2019-01-03T13:23:05.236Z,17.2
2019-01-03T13:23:54.231Z,17.2
2019-01-03T13:24:45.164Z,17.2
2019-01-03T13:25:35.161Z,17.3
2019-01-03T13:26:24.346Z,17.2
2019-01-03T13:27:14.971Z,17.3
2019-01-03T13:28:05.014Z,17.3
2019-01-03T13:28:55.013Z,17.3
2019-01-03T13:29:45.693Z,17.3
2019-01-03T13:30:35.728Z,17.3
2019-01-03T13:31:25.289Z,17.2
2019-01-03T13:32:16.216Z,17.2
2019-01-03T13:33:04.266Z,17.1
2019-01-03T13:33:55.496Z,17.1
2019-01-03T13:34:45.504Z,17.1
2019-01-03T13:35:36.107Z,17.1
2019-01-03T13:36:26.393Z,17.1
2019-01-03T13:37:16.208Z,17.2
2019-01-03T13:38:06.223Z,17.2
2019-01-03T13:38:56.013Z,17.3
2019-01-03T13:39:45.261Z,17.3
2019-01-03T13:40:36.428Z,17.2
2019-01-03T13:41:25.903Z,17.2
2019-01-03T13:42:16.323Z,17.3
2019-01-03T13:43:05.752Z,17.3
2019-01-03T13:43:56.373Z,17.3